地図

経路データ

SID SEASON NUMBER BASIN SUBBASIN NAME ISO_TIME NATURE LAT LON WMO_WIND WMO_PRES WMO_AGENCY TRACK_TYPE DIST2LAND LANDFALL IFLAG USA_AGENCY USA_ATCF_ID USA_LAT USA_LON USA_RECORD USA_STATUS USA_WIND USA_PRES USA_SSHS USA_R34_NE USA_R34_SE USA_R34_SW USA_R34_NW USA_R50_NE USA_R50_SE USA_R50_SW USA_R50_NW USA_R64_NE USA_R64_SE USA_R64_SW USA_R64_NW USA_POCI USA_ROCI USA_RMW USA_EYE TOKYO_LAT TOKYO_LON TOKYO_GRADE TOKYO_WIND TOKYO_PRES TOKYO_R50_DIR TOKYO_R50_LONG TOKYO_R50_SHORT TOKYO_R30_DIR TOKYO_R30_LONG TOKYO_R30_SHORT TOKYO_LAND CMA_LAT CMA_LON CMA_CAT CMA_WIND CMA_PRES HKO_LAT HKO_LON HKO_CAT HKO_WIND HKO_PRES NEWDELHI_LAT NEWDELHI_LON NEWDELHI_GRADE NEWDELHI_WIND NEWDELHI_PRES NEWDELHI_CI NEWDELHI_DP NEWDELHI_POCI REUNION_LAT REUNION_LON REUNION_TYPE REUNION_WIND REUNION_PRES REUNION_TNUM REUNION_CI REUNION_RMW REUNION_R34_NE REUNION_R34_SE REUNION_R34_SW REUNION_R34_NW REUNION_R50_NE REUNION_R50_SE REUNION_R50_SW REUNION_R50_NW REUNION_R64_NE REUNION_R64_SE REUNION_R64_SW REUNION_R64_NW BOM_LAT BOM_LON BOM_TYPE BOM_WIND BOM_PRES BOM_TNUM BOM_CI BOM_RMW BOM_R34_NE BOM_R34_SE BOM_R34_SW BOM_R34_NW BOM_R50_NE BOM_R50_SE BOM_R50_SW BOM_R50_NW BOM_R64_NE BOM_R64_SE BOM_R64_SW BOM_R64_NW BOM_ROCI BOM_POCI BOM_EYE BOM_POS_METHOD BOM_PRES_METHOD NADI_LAT NADI_LON NADI_CAT NADI_WIND NADI_PRES WELLINGTON_LAT WELLINGTON_LON WELLINGTON_WIND WELLINGTON_PRES DS824_LAT DS824_LON DS824_STAGE DS824_WIND DS824_PRES TD9636_LAT TD9636_LON TD9636_STAGE TD9636_WIND TD9636_PRES TD9635_LAT TD9635_LON TD9635_WIND TD9635_PRES TD9635_ROCI NEUMANN_LAT NEUMANN_LON NEUMANN_CLASS NEUMANN_WIND NEUMANN_PRES MLC_LAT MLC_LON MLC_CLASS MLC_WIND MLC_PRES USA_GUST BOM_GUST BOM_GUST_PER REUNION_GUST REUNION_GUST_PER USA_SEAHGT USA_SEARAD_NE USA_SEARAD_SE USA_SEARAD_SW USA_SEARAD_NW STORM_SPEED STORM_DIR
1857267N16305 1857 14 NA NA NOT_NAMED 1857-09-24 00:00:00 TS 16.0000 -54.7000 50 hurdat_atl main 903 848 O_____________ hurdat_atl AL041857 16.0000 -54.7000 TS 50 0 14 270
1857267N16305 1857 14 NA NA NOT_NAMED 1857-09-24 03:00:00 TS 16.0005 -55.4500 main 840 788 P_____________ AL041857 16.0005 -55.4500 TS 50 0 14 270
1857267N16305 1857 14 NA NA NOT_NAMED 1857-09-24 06:00:00 TS 16.0000 -56.2000 50 hurdat_atl main 788 740 O_____________ hurdat_atl AL041857 16.0000 -56.2000 TS 50 0 14 270
1857267N16305 1857 14 NA NA NOT_NAMED 1857-09-24 09:00:00 TS 15.9997 -56.9500 main 740 692 P_____________ AL041857 15.9997 -56.9500 TS 50 0 14 270
1857267N16305 1857 14 NA NA NOT_NAMED 1857-09-24 12:00:00 TS 16.0000 -57.7000 50 hurdat_atl main 692 656 O_____________ hurdat_atl AL041857 16.0000 -57.7000 TS 50 0 14 270
1857267N16305 1857 14 NA NA NOT_NAMED 1857-09-24 15:00:00 TS 15.9994 -58.4200 main 656 624 P_____________ AL041857 15.9994 -58.4200 TS 50 0 14 270
1857267N16305 1857 14 NA NA NOT_NAMED 1857-09-24 18:00:00 TS 16.0000 -59.2000 50 hurdat_atl main 624 601 O_____________ hurdat_atl AL041857 16.0000 -59.2000 TS 50 0 16 270
1857267N16305 1857 14 NA NA NOT_NAMED 1857-09-24 21:00:00 TS 15.9999 -60.1200 main 601 547 P_____________ AL041857 15.9999 -60.1200 TS 55 0 18 270
1857267N16305 1857 14 NA CS NOT_NAMED 1857-09-25 00:00:00 TS 16.0000 -61.1000 60 hurdat_atl main 537 455 O_____________ hurdat_atl AL041857 16.0000 -61.1000 TS 60 0 19 270
1857267N16305 1857 14 NA CS NOT_NAMED 1857-09-25 03:00:00 TS 15.9999 -62.0725 main 446 370 P_____________ AL041857 15.9999 -62.0725 TS 60 0 18 270
1857267N16305 1857 14 NA CS NOT_NAMED 1857-09-25 06:00:00 TS 16.0000 -63.0000 60 hurdat_atl main 370 316 O_____________ hurdat_atl AL041857 16.0000 -63.0000 TS 60 0 16 270
1857267N16305 1857 14 NA CS NOT_NAMED 1857-09-25 09:00:00 TS 15.9989 -63.7775 main 308 263 P_____________ AL041857 15.9989 -63.7775 TS 60 0 15 270
1857267N16305 1857 14 NA CS NOT_NAMED 1857-09-25 12:00:00 TS 16.0000 -64.6000 60 hurdat_atl main 257 222 O_____________ hurdat_atl AL041857 16.0000 -64.6000 TS 60 0 18 270
1857267N16305 1857 14 NA CS NOT_NAMED 1857-09-25 15:00:00 TS 16.0006 -65.6925 main 219 212 P_____________ AL041857 16.0006 -65.6925 TS 60 0 21 270
1857267N16305 1857 14 NA CS NOT_NAMED 1857-09-25 18:00:00 TS 16.0000 -66.8000 60 hurdat_atl main 212 212 O_____________ hurdat_atl AL041857 16.0000 -66.8000 TS 60 0 19 270
1857267N16305 1857 14 NA CS NOT_NAMED 1857-09-25 21:00:00 TS 15.9991 -67.6800 main 219 219 P_____________ AL041857 15.9991 -67.6800 TS 65 1 16 270
1857267N16305 1857 14 NA CS NOT_NAMED 1857-09-26 00:00:00 TS 16.0000 -68.5000 70 hurdat_atl main 246 246 O_____________ hurdat_atl AL041857 16.0000 -68.5000 HU 70 1 16 270
1857267N16305 1857 14 NA CS NOT_NAMED 1857-09-26 03:00:00 TS 15.9922 -69.3926 main 254 219 P_____________ AL041857 15.9922 -69.3926 HU 70 1 17 270
1857267N16305 1857 14 NA CS NOT_NAMED 1857-09-26 06:00:00 TS 16.0000 -70.3000 70 hurdat_atl main 213 180 O_____________ hurdat_atl AL041857 16.0000 -70.3000 HU 70 1 17 272
1857267N16305 1857 14 NA CS NOT_NAMED 1857-09-26 09:00:00 TS 16.0421 -71.1999 main 180 167 P_____________ AL041857 16.0421 -71.1999 HU 70 1 17 273
1857267N16305 1857 14 NA CS NOT_NAMED 1857-09-26 12:00:00 TS 16.1000 -72.1000 70 hurdat_atl main 183 183 O_____________ hurdat_atl AL041857 16.1000 -72.1000 HU 70 1 17 273
1857267N16305 1857 14 NA CS NOT_NAMED 1857-09-26 15:00:00 TS 16.1270 -72.9929 main 224 201 P_____________ AL041857 16.1270 -72.9929 HU 70 1 17 273
1857267N16305 1857 14 NA CS NOT_NAMED 1857-09-26 18:00:00 TS 16.2000 -73.9000 70 hurdat_atl main 201 194 O_____________ hurdat_atl AL041857 16.2000 -73.9000 HU 70 1 18 278
1857267N16305 1857 14 NA CS NOT_NAMED 1857-09-26 21:00:00 TS 16.3769 -74.8200 main 202 154 P_____________ AL041857 16.3769 -74.8200 HU 75 1 19 282
1857267N16305 1857 14 NA CS NOT_NAMED 1857-09-27 00:00:00 TS 16.6000 -75.8000 80 hurdat_atl main 151 109 O_____________ hurdat_atl AL041857 16.6000 -75.8000 HU 80 1 20 281
1857267N16305 1857 14 NA CS NOT_NAMED 1857-09-27 03:00:00 TS 16.7774 -76.8856 main 105 90 P_____________ AL041857 16.7774 -76.8856 HU 80 1 21 281
1857267N16305 1857 14 NA CS NOT_NAMED 1857-09-27 06:00:00 TS 17.0000 -78.0000 80 hurdat_atl main 105 105 O_____________ hurdat_atl AL041857 17.0000 -78.0000 HU 80 1 22 285
1857267N16305 1857 14 NA CS NOT_NAMED 1857-09-27 09:00:00 TS 17.3426 -79.1169 main 125 123 P_____________ AL041857 17.3426 -79.1169 HU 80 1 21 289
1857267N16305 1857 14 NA CS NOT_NAMED 1857-09-27 12:00:00 TS 17.7000 -80.1000 80 hurdat_atl main 188 188 O_____________ hurdat_atl AL041857 17.7000 -80.1000 HU 80 1 17 291
1857267N16305 1857 14 NA CS NOT_NAMED 1857-09-27 15:00:00 TS 17.9414 -80.7960 main 255 254 P_____________ AL041857 17.9414 -80.7960 HU 80 1 13 292
1857267N16305 1857 14 NA CS NOT_NAMED 1857-09-27 18:00:00 TS 18.2000 -81.4000 80 hurdat_atl main 316 316 O_____________ hurdat_atl AL041857 18.2000 -81.4000 HU 80 1 14 296
1857267N16305 1857 14 NA CS NOT_NAMED 1857-09-27 21:00:00 TS 18.5851 -82.1572 main 319 268 P_____________ AL041857 18.5851 -82.1572 HU 85 2 16 299
1857267N16305 1857 14 NA CS NOT_NAMED 1857-09-28 00:00:00 TS 19.0000 -82.9000 90 hurdat_atl main 268 235 O_____________ hurdat_atl AL041857 19.0000 -82.9000 HU 90 2 15 301
1857267N16305 1857 14 NA CS NOT_NAMED 1857-09-28 03:00:00 TS 19.3721 -83.5228 main 235 226 P_____________ AL041857 19.3721 -83.5228 HU 90 2 13 302
1857267N16305 1857 14 NA CS NOT_NAMED 1857-09-28 06:00:00 TS 19.7000 -84.1000 90 hurdat_atl main 231 212 O_____________ hurdat_atl AL041857 19.7000 -84.1000 HU 90 2 12 297
1857267N16305 1857 14 NA CS NOT_NAMED 1857-09-28 09:00:00 TS 19.9423 -84.7006 main 212 177 P_____________ AL041857 19.9423 -84.7006 HU 90 2 12 294
1857267N16305 1857 14 NA CS NOT_NAMED 1857-09-28 12:00:00 TS 20.2000 -85.3000 90 hurdat_atl main 177 100 O_____________ hurdat_atl AL041857 20.2000 -85.3000 HU 90 2 13 300
1857267N16305 1857 14 NA CS NOT_NAMED 1857-09-28 15:00:00 TS 20.5846 -85.8851 main 100 23 P_____________ AL041857 20.5846 -85.8851 HU 90 2 14 305
1857267N16305 1857 14 NA CS NOT_NAMED 1857-09-28 18:00:00 TS 21.0000 -86.5000 90 hurdat_atl main 23 0 O_____________ hurdat_atl AL041857 21.0000 -86.5000 HU 90 2 14 303
1857267N16305 1857 14 NA NA NOT_NAMED 1857-09-28 21:00:00 TS 21.3723 -87.1777 main 0 0 P_____________ AL041857 21.3723 -87.1777 HU 80 1 15 298
1857267N16305 1857 14 NA GM NOT_NAMED 1857-09-29 00:00:00 TS 21.7000 -87.9000 70 hurdat_atl main 22 22 O_____________ hurdat_atl AL041857 21.7000 -87.9000 HU 70 1 15 293
1857267N16305 1857 14 NA GM NOT_NAMED 1857-09-29 03:00:00 TS 21.9422 -88.6359 main 44 44 P_____________ AL041857 21.9422 -88.6359 HU 65 1 15 290
1857267N16305 1857 14 NA GM NOT_NAMED 1857-09-29 06:00:00 TS 22.2000 -89.4000 60 hurdat_atl main 101 101 O_____________ hurdat_atl AL041857 22.2000 -89.4000 TS 60 0 16 294
1857267N16305 1857 14 NA GM NOT_NAMED 1857-09-29 09:00:00 TS 22.5847 -90.1924 main 159 159 P_____________ AL041857 22.5847 -90.1924 TS 60 0 17 298
1857267N16305 1857 14 NA GM NOT_NAMED 1857-09-29 12:00:00 TS 23.0000 -91.0000 60 hurdat_atl main 224 224 O_____________ hurdat_atl AL041857 23.0000 -91.0000 TS 60 0 17 297
1857267N16305 1857 14 NA GM NOT_NAMED 1857-09-29 15:00:00 TS 23.3572 -91.8080 main 299 299 P_____________ AL041857 23.3572 -91.8080 TS 60 0 16 295
1857267N16305 1857 14 NA GM NOT_NAMED 1857-09-29 18:00:00 TS 23.7000 -92.6000 60 hurdat_atl main 374 374 O_____________ hurdat_atl AL041857 23.7000 -92.6000 TS 60 0 16 296
1857267N16305 1857 14 NA GM NOT_NAMED 1857-09-29 21:00:00 TS 24.0418 -93.3432 main 432 339 P_____________ AL041857 24.0418 -93.3432 TS 55 0 15 297
1857267N16305 1857 14 NA GM NOT_NAMED 1857-09-30 00:00:00 TS 24.4000 -94.1000 50 hurdat_atl main 339 247 O_____________ hurdat_atl AL041857 24.4000 -94.1000 TS 50 0 16 297
1857267N16305 1857 14 NA GM NOT_NAMED 1857-09-30 03:00:00 TS 24.7835 -94.9271 main 247 147 P_____________ AL041857 24.7835 -94.9271 TS 50 0 17 297
1857267N16305 1857 14 NA GM NOT_NAMED 1857-09-30 06:00:00 TS 25.2000 -95.8000 50 hurdat_atl main 147 50 O_____________ hurdat_atl AL041857 25.2000 -95.8000 TS 50 0 18 299
1857267N16305 1857 14 NA GM NOT_NAMED 1857-09-30 09:00:00 TS 25.6683 -96.7182 main 50 20 P_____________ AL041857 25.6683 -96.7182 TS 50 0 19 299
1857267N16305 1857 14 NA GM NOT_NAMED 1857-09-30 10:00:00 TS 25.8000 -97.0000 50 hurdat_atl main 20 0 O_____________ hurdat_atl AL041857 25.8000 -97.0000 L TS 50 0 16 295
1857267N16305 1857 14 NA NA NOT_NAMED 1857-09-30 12:00:00 TS 26.0000 -97.5000 50 hurdat_atl main 0 0 O_____________ hurdat_atl AL041857 26.0000 -97.5000 TS 50 0 16 299
1857267N16305 1857 14 NA NA NOT_NAMED 1857-09-30 15:00:00 TS 26.4363 -98.2765 main 0 0 P_____________ AL041857 26.4363 -98.2765 TS 45 0 17 305
1857267N16305 1857 14 NA NA NOT_NAMED 1857-09-30 18:00:00 TS 27.0000 -99.1000 40 hurdat_atl main 0 O_____________ hurdat_atl AL041857 27.0000 -99.1000 TS 40 0 19 308

IBTrACS Databaseについて

本データベースは、米国NOAAが公開する1842年以降の世界の熱帯低気圧のベストトラックデータアーカイブInternational Best Track Archive for Climate Stewardship (IBTrACS)を、ウェブで閲覧しやすい形式に変換したものです。

最終更新日:2021-10-19